sensor_id;sensor_type;location;lat;lon;timestamp;P1;durP1;ratioP1;P2;durP2;ratioP2
10517;SDS011;5307;42.548;22.968;2024-03-23T00:55:55;26.65;;;11.68;;
10517;SDS011;5307;42.548;22.968;2024-03-23T00:58:21;29.90;;;14.60;;
10517;SDS011;5307;42.548;22.968;2024-03-23T01:00:48;36.03;;;14.48;;
10517;SDS011;5307;42.548;22.968;2024-03-23T01:03:13;30.63;;;13.88;;
10517;SDS011;5307;42.548;22.968;2024-03-23T01:05:40;27.90;;;12.70;;
10517;SDS011;5307;42.548;22.968;2024-03-23T01:08:06;24.95;;;10.98;;
10517;SDS011;5307;42.548;22.968;2024-03-23T01:10:33;15.30;;;9.25;;
10517;SDS011;5307;42.548;22.968;2024-03-23T01:13:00;18.95;;;10.25;;
10517;SDS011;5307;42.548;22.968;2024-03-23T01:15:27;16.55;;;9.18;;
10517;SDS011;5307;42.548;22.968;2024-03-23T01:17:53;17.73;;;8.73;;
10517;SDS011;5307;42.548;22.968;2024-03-23T01:20:19;19.98;;;9.13;;
10517;SDS011;5307;42.548;22.968;2024-03-23T01:22:45;31.70;;;10.65;;
10517;SDS011;5307;42.548;22.968;2024-03-23T01:25:12;35.28;;;12.93;;
10517;SDS011;5307;42.548;22.968;2024-03-23T01:27:38;50.22;;;16.02;;
10517;SDS011;5307;42.548;22.968;2024-03-23T01:30:06;37.15;;;14.82;;
10517;SDS011;5307;42.548;22.968;2024-03-23T01:32:32;39.60;;;15.60;;
10517;SDS011;5307;42.548;22.968;2024-03-23T01:34:59;36.28;;;15.30;;
10517;SDS011;5307;42.548;22.968;2024-03-23T01:37:25;38.50;;;15.05;;
10517;SDS011;5307;42.548;22.968;2024-03-23T01:39:52;29.90;;;12.98;;
10517;SDS011;5307;42.548;22.968;2024-03-23T01:42:17;29.90;;;12.70;;
10517;SDS011;5307;42.548;22.968;2024-03-23T01:44:44;38.88;;;15.05;;
10517;SDS011;5307;42.548;22.968;2024-03-23T01:47:11;38.83;;;16.17;;
10517;SDS011;5307;42.548;22.968;2024-03-23T01:49:38;38.70;;;16.88;;
10517;SDS011;5307;42.548;22.968;2024-03-23T01:52:04;57.83;;;21.83;;
10517;SDS011;5307;42.548;22.968;2024-03-23T01:54:31;75.10;;;27.75;;
10517;SDS011;5307;42.548;22.968;2024-03-23T01:56:57;77.47;;;25.05;;
10517;SDS011;5307;42.548;22.968;2024-03-23T01:59:25;59.80;;;22.27;;
10517;SDS011;5307;42.548;22.968;2024-03-23T02:01:51;81.35;;;27.75;;
10517;SDS011;5307;42.548;22.968;2024-03-23T02:04:19;74.82;;;22.80;;
10517;SDS011;5307;42.548;22.968;2024-03-23T02:06:44;69.63;;;24.15;;
10517;SDS011;5307;42.548;22.968;2024-03-23T02:09:11;81.53;;;28.90;;
10517;SDS011;5307;42.548;22.968;2024-03-23T02:11:37;59.35;;;21.33;;
10517;SDS011;5307;42.548;22.968;2024-03-23T02:14:04;55.03;;;20.70;;
10517;SDS011;5307;42.548;22.968;2024-03-23T02:16:29;53.75;;;20.83;;
10517;SDS011;5307;42.548;22.968;2024-03-23T02:18:56;43.58;;;17.27;;
10517;SDS011;5307;42.548;22.968;2024-03-23T02:21:23;52.08;;;19.25;;
10517;SDS011;5307;42.548;22.968;2024-03-23T02:23:52;40.00;;;16.25;;
10517;SDS011;5307;42.548;22.968;2024-03-23T02:26:18;37.83;;;15.85;;
10517;SDS011;5307;42.548;22.968;2024-03-23T02:28:45;34.22;;;15.13;;
10517;SDS011;5307;42.548;22.968;2024-03-23T02:31:10;35.35;;;15.40;;
10517;SDS011;5307;42.548;22.968;2024-03-23T02:33:37;38.67;;;15.90;;
10517;SDS011;5307;42.548;22.968;2024-03-23T02:36:03;28.70;;;12.95;;
10517;SDS011;5307;42.548;22.968;2024-03-23T02:38:30;31.20;;;13.40;;
10517;SDS011;5307;42.548;22.968;2024-03-23T02:41:02;26.73;;;11.75;;
10517;SDS011;5307;42.548;22.968;2024-03-23T02:43:29;25.98;;;12.23;;
10517;SDS011;5307;42.548;22.968;2024-03-23T02:45:55;24.48;;;11.57;;
10517;SDS011;5307;42.548;22.968;2024-03-23T02:48:22;23.08;;;11.32;;
10517;SDS011;5307;42.548;22.968;2024-03-23T02:50:48;21.67;;;11.32;;
10517;SDS011;5307;42.548;22.968;2024-03-23T02:53:15;27.08;;;13.88;;
10517;SDS011;5307;42.548;22.968;2024-03-23T02:55:41;24.85;;;12.18;;
10517;SDS011;5307;42.548;22.968;2024-03-23T02:58:09;26.13;;;13.50;;
10517;SDS011;5307;42.548;22.968;2024-03-23T03:00:35;24.48;;;12.60;;
10517;SDS011;5307;42.548;22.968;2024-03-23T03:03:01;27.10;;;12.18;;
10517;SDS011;5307;42.548;22.968;2024-03-23T03:05:28;25.73;;;13.18;;
10517;SDS011;5307;42.548;22.968;2024-03-23T03:07:55;22.80;;;12.63;;
10517;SDS011;5307;42.548;22.968;2024-03-23T03:10:21;30.05;;;11.43;;
10517;SDS011;5307;42.548;22.968;2024-03-23T03:12:47;27.48;;;10.57;;
10517;SDS011;5307;42.548;22.968;2024-03-23T03:15:15;22.35;;;12.23;;
10517;SDS011;5307;42.548;22.968;2024-03-23T03:17:41;25.30;;;11.25;;
10517;SDS011;5307;42.548;22.968;2024-03-23T03:20:07;20.13;;;11.10;;
10517;SDS011;5307;42.548;22.968;2024-03-23T03:22:38;29.42;;;12.02;;
10517;SDS011;5307;42.548;22.968;2024-03-23T03:25:04;32.17;;;13.77;;
10517;SDS011;5307;42.548;22.968;2024-03-23T03:27:32;26.83;;;12.70;;
10517;SDS011;5307;42.548;22.968;2024-03-23T03:29:58;26.25;;;12.55;;
10517;SDS011;5307;42.548;22.968;2024-03-23T03:32:27;24.10;;;10.65;;
10517;SDS011;5307;42.548;22.968;2024-03-23T03:34:54;26.13;;;12.20;;
10517;SDS011;5307;42.548;22.968;2024-03-23T03:37:21;25.73;;;10.38;;
10517;SDS011;5307;42.548;22.968;2024-03-23T03:39:46;18.52;;;10.18;;
10517;SDS011;5307;42.548;22.968;2024-03-23T03:42:13;19.42;;;9.48;;
10517;SDS011;5307;42.548;22.968;2024-03-23T03:44:39;21.45;;;9.50;;
10517;SDS011;5307;42.548;22.968;2024-03-23T03:47:06;18.42;;;9.07;;
10517;SDS011;5307;42.548;22.968;2024-03-23T03:49:33;18.50;;;8.70;;
10517;SDS011;5307;42.548;22.968;2024-03-23T03:52:00;18.83;;;7.97;;
10517;SDS011;5307;42.548;22.968;2024-03-23T03:54:27;15.75;;;7.70;;
10517;SDS011;5307;42.548;22.968;2024-03-23T03:56:53;18.23;;;9.35;;
10517;SDS011;5307;42.548;22.968;2024-03-23T03:59:19;21.00;;;11.02;;
10517;SDS011;5307;42.548;22.968;2024-03-23T04:01:46;25.05;;;9.57;;
10517;SDS011;5307;42.548;22.968;2024-03-23T04:04:12;26.67;;;12.95;;
10517;SDS011;5307;42.548;22.968;2024-03-23T04:06:40;29.38;;;13.43;;
10517;SDS011;5307;42.548;22.968;2024-03-23T04:09:06;25.45;;;12.10;;
10517;SDS011;5307;42.548;22.968;2024-03-23T04:11:32;23.17;;;13.00;;
10517;SDS011;5307;42.548;22.968;2024-03-23T04:13:58;24.40;;;13.30;;
10517;SDS011;5307;42.548;22.968;2024-03-23T04:16:26;25.67;;;12.07;;
10517;SDS011;5307;42.548;22.968;2024-03-23T04:18:52;29.83;;;11.88;;
10517;SDS011;5307;42.548;22.968;2024-03-23T04:21:19;26.98;;;13.23;;
10517;SDS011;5307;42.548;22.968;2024-03-23T04:23:46;27.05;;;12.40;;
10517;SDS011;5307;42.548;22.968;2024-03-23T04:26:13;21.88;;;11.93;;
10517;SDS011;5307;42.548;22.968;2024-03-23T04:28:40;22.33;;;12.45;;
10517;SDS011;5307;42.548;22.968;2024-03-23T04:31:07;30.45;;;11.90;;
10517;SDS011;5307;42.548;22.968;2024-03-23T04:33:32;24.55;;;11.70;;
10517;SDS011;5307;42.548;22.968;2024-03-23T04:35:59;23.33;;;11.02;;
10517;SDS011;5307;42.548;22.968;2024-03-23T04:38:25;21.42;;;12.25;;
10517;SDS011;5307;42.548;22.968;2024-03-23T04:40:56;24.63;;;12.07;;
10517;SDS011;5307;42.548;22.968;2024-03-23T04:43:23;24.67;;;11.60;;
10517;SDS011;5307;42.548;22.968;2024-03-23T04:45:51;24.83;;;13.10;;
10517;SDS011;5307;42.548;22.968;2024-03-23T04:48:19;23.45;;;12.18;;
10517;SDS011;5307;42.548;22.968;2024-03-23T04:50:46;27.05;;;12.70;;
10517;SDS011;5307;42.548;22.968;2024-03-23T04:53:14;29.50;;;14.77;;
10517;SDS011;5307;42.548;22.968;2024-03-23T04:55:42;25.70;;;14.90;;
10517;SDS011;5307;42.548;22.968;2024-03-23T04:58:10;26.52;;;13.80;;
10517;SDS011;5307;42.548;22.968;2024-03-23T05:00:36;26.83;;;14.02;;
10517;SDS011;5307;42.548;22.968;2024-03-23T05:03:02;28.08;;;12.75;;
10517;SDS011;5307;42.548;22.968;2024-03-23T05:05:29;20.65;;;12.48;;
10517;SDS011;5307;42.548;22.968;2024-03-23T05:07:56;21.50;;;11.57;;
10517;SDS011;5307;42.548;22.968;2024-03-23T05:10:21;26.65;;;13.02;;
10517;SDS011;5307;42.548;22.968;2024-03-23T05:12:48;25.95;;;13.32;;
10517;SDS011;5307;42.548;22.968;2024-03-23T05:15:17;26.55;;;13.90;;
10517;SDS011;5307;42.548;22.968;2024-03-23T05:17:42;49.70;;;21.88;;
10517;SDS011;5307;42.548;22.968;2024-03-23T05:20:09;27.50;;;15.10;;
10517;SDS011;5307;42.548;22.968;2024-03-23T05:22:37;27.30;;;14.80;;
10517;SDS011;5307;42.548;22.968;2024-03-23T05:25:04;23.23;;;12.18;;
10517;SDS011;5307;42.548;22.968;2024-03-23T05:27:31;28.08;;;13.48;;
10517;SDS011;5307;42.548;22.968;2024-03-23T05:29:58;33.40;;;17.55;;
10517;SDS011;5307;42.548;22.968;2024-03-23T05:32:25;29.75;;;17.15;;
10517;SDS011;5307;42.548;22.968;2024-03-23T05:34:52;34.05;;;17.23;;
10517;SDS011;5307;42.548;22.968;2024-03-23T05:37:21;27.55;;;15.68;;
10517;SDS011;5307;42.548;22.968;2024-03-23T05:39:48;37.20;;;18.35;;
10517;SDS011;5307;42.548;22.968;2024-03-23T05:42:15;31.40;;;17.33;;
10517;SDS011;5307;42.548;22.968;2024-03-23T05:44:42;23.30;;;12.32;;
10517;SDS011;5307;42.548;22.968;2024-03-23T05:47:09;33.83;;;16.90;;
10517;SDS011;5307;42.548;22.968;2024-03-23T05:49:37;23.90;;;14.52;;
10517;SDS011;5307;42.548;22.968;2024-03-23T05:52:03;31.30;;;16.17;;
10517;SDS011;5307;42.548;22.968;2024-03-23T05:54:30;31.60;;;17.13;;
10517;SDS011;5307;42.548;22.968;2024-03-23T05:56:55;34.92;;;17.45;;
10517;SDS011;5307;42.548;22.968;2024-03-23T05:59:22;34.67;;;17.45;;
10517;SDS011;5307;42.548;22.968;2024-03-23T06:01:48;36.47;;;18.20;;
10517;SDS011;5307;42.548;22.968;2024-03-23T06:04:15;31.38;;;17.88;;
10517;SDS011;5307;42.548;22.968;2024-03-23T06:06:42;35.15;;;19.27;;
10517;SDS011;5307;42.548;22.968;2024-03-23T06:09:09;36.53;;;20.00;;
10517;SDS011;5307;42.548;22.968;2024-03-23T06:11:34;36.75;;;20.48;;
10517;SDS011;5307;42.548;22.968;2024-03-23T06:14:01;36.80;;;18.15;;
10517;SDS011;5307;42.548;22.968;2024-03-23T06:16:27;28.65;;;15.57;;
10517;SDS011;5307;42.548;22.968;2024-03-23T06:18:54;22.95;;;13.68;;
10517;SDS011;5307;42.548;22.968;2024-03-23T06:21:20;18.25;;;10.57;;
10517;SDS011;5307;42.548;22.968;2024-03-23T06:23:50;20.25;;;10.32;;
10517;SDS011;5307;42.548;22.968;2024-03-23T06:26:18;17.42;;;9.77;;
10517;SDS011;5307;42.548;22.968;2024-03-23T06:28:44;16.67;;;9.85;;
10517;SDS011;5307;42.548;22.968;2024-03-23T06:31:10;19.80;;;10.98;;
10517;SDS011;5307;42.548;22.968;2024-03-23T06:33:38;14.25;;;9.10;;
10517;SDS011;5307;42.548;22.968;2024-03-23T06:36:05;13.85;;;8.77;;
10517;SDS011;5307;42.548;22.968;2024-03-23T06:38:31;15.52;;;9.20;;
10517;SDS011;5307;42.548;22.968;2024-03-23T06:41:00;14.32;;;9.43;;
10517;SDS011;5307;42.548;22.968;2024-03-23T06:43:27;14.50;;;9.25;;
10517;SDS011;5307;42.548;22.968;2024-03-23T06:45:55;15.73;;;8.43;;
10517;SDS011;5307;42.548;22.968;2024-03-23T06:48:21;14.38;;;8.70;;
10517;SDS011;5307;42.548;22.968;2024-03-23T06:50:48;16.73;;;10.02;;
10517;SDS011;5307;42.548;22.968;2024-03-23T06:53:14;17.17;;;9.55;;
10517;SDS011;5307;42.548;22.968;2024-03-23T06:55:41;15.45;;;9.50;;
10517;SDS011;5307;42.548;22.968;2024-03-23T06:58:08;15.40;;;9.07;;
10517;SDS011;5307;42.548;22.968;2024-03-23T07:00:35;14.57;;;8.90;;
10517;SDS011;5307;42.548;22.968;2024-03-23T07:03:01;12.75;;;8.57;;
10517;SDS011;5307;42.548;22.968;2024-03-23T07:05:28;13.68;;;8.13;;
10517;SDS011;5307;42.548;22.968;2024-03-23T07:07:54;14.27;;;8.80;;
10517;SDS011;5307;42.548;22.968;2024-03-23T07:10:21;17.27;;;8.00;;
10517;SDS011;5307;42.548;22.968;2024-03-23T07:12:46;15.23;;;9.15;;
10517;SDS011;5307;42.548;22.968;2024-03-23T07:17:56;12.82;;;7.57;;
10517;SDS011;5307;42.548;22.968;2024-03-23T07:20:23;14.63;;;8.25;;
10517;SDS011;5307;42.548;22.968;2024-03-23T07:22:55;12.30;;;7.43;;
10517;SDS011;5307;42.548;22.968;2024-03-23T07:25:22;16.10;;;7.15;;
10517;SDS011;5307;42.548;22.968;2024-03-23T07:27:48;9.63;;;6.15;;
10517;SDS011;5307;42.548;22.968;2024-03-23T07:30:17;11.23;;;5.95;;
10517;SDS011;5307;42.548;22.968;2024-03-23T07:32:45;10.55;;;6.35;;
10517;SDS011;5307;42.548;22.968;2024-03-23T07:35:12;9.32;;;5.53;;
10517;SDS011;5307;42.548;22.968;2024-03-23T07:37:38;9.45;;;6.05;;
10517;SDS011;5307;42.548;22.968;2024-03-23T07:40:05;10.45;;;5.88;;
10517;SDS011;5307;42.548;22.968;2024-03-23T07:42:32;9.52;;;6.88;;
10517;SDS011;5307;42.548;22.968;2024-03-23T07:44:58;12.50;;;6.57;;
10517;SDS011;5307;42.548;22.968;2024-03-23T07:47:24;8.68;;;6.57;;
10517;SDS011;5307;42.548;22.968;2024-03-23T07:49:52;16.80;;;7.22;;
10517;SDS011;5307;42.548;22.968;2024-03-23T07:52:18;10.27;;;6.97;;
10517;SDS011;5307;42.548;22.968;2024-03-23T07:54:45;11.65;;;6.80;;
10517;SDS011;5307;42.548;22.968;2024-03-23T07:57:11;10.05;;;7.32;;
10517;SDS011;5307;42.548;22.968;2024-03-23T07:59:38;8.88;;;5.60;;
10517;SDS011;5307;42.548;22.968;2024-03-23T08:02:04;7.57;;;5.68;;
10517;SDS011;5307;42.548;22.968;2024-03-23T08:04:31;15.63;;;7.30;;
10517;SDS011;5307;42.548;22.968;2024-03-23T08:06:58;14.70;;;8.32;;
10517;SDS011;5307;42.548;22.968;2024-03-23T08:09:25;11.00;;;7.13;;
10517;SDS011;5307;42.548;22.968;2024-03-23T08:11:51;11.57;;;6.25;;
10517;SDS011;5307;42.548;22.968;2024-03-23T08:14:17;9.63;;;7.13;;
10517;SDS011;5307;42.548;22.968;2024-03-23T08:16:43;12.43;;;6.55;;
10517;SDS011;5307;42.548;22.968;2024-03-23T08:19:13;10.18;;;6.40;;
10517;SDS011;5307;42.548;22.968;2024-03-23T08:21:39;9.70;;;7.10;;
10517;SDS011;5307;42.548;22.968;2024-03-23T08:24:08;12.65;;;6.53;;
10517;SDS011;5307;42.548;22.968;2024-03-23T08:26:33;11.93;;;6.32;;
10517;SDS011;5307;42.548;22.968;2024-03-23T08:29:02;10.48;;;6.43;;
10517;SDS011;5307;42.548;22.968;2024-03-23T08:31:28;11.35;;;6.13;;
10517;SDS011;5307;42.548;22.968;2024-03-23T08:33:55;10.60;;;6.40;;
10517;SDS011;5307;42.548;22.968;2024-03-23T08:36:21;9.80;;;6.20;;
10517;SDS011;5307;42.548;22.968;2024-03-23T08:38:48;8.38;;;5.75;;
10517;SDS011;5307;42.548;22.968;2024-03-23T08:41:17;12.98;;;6.28;;
10517;SDS011;5307;42.548;22.968;2024-03-23T08:43:43;8.60;;;4.78;;
10517;SDS011;5307;42.548;22.968;2024-03-23T08:46:10;12.50;;;6.90;;
10517;SDS011;5307;42.548;22.968;2024-03-23T08:48:38;15.90;;;7.35;;
10517;SDS011;5307;42.548;22.968;2024-03-23T08:51:05;8.57;;;5.85;;
10517;SDS011;5307;42.548;22.968;2024-03-23T08:53:34;13.77;;;6.03;;
10517;SDS011;5307;42.548;22.968;2024-03-23T08:56:00;9.80;;;6.15;;
10517;SDS011;5307;42.548;22.968;2024-03-23T08:58:30;12.13;;;6.32;;
10517;SDS011;5307;42.548;22.968;2024-03-23T09:01:02;13.38;;;6.05;;
10517;SDS011;5307;42.548;22.968;2024-03-23T09:03:30;10.00;;;6.40;;
10517;SDS011;5307;42.548;22.968;2024-03-23T09:05:56;13.05;;;7.20;;
10517;SDS011;5307;42.548;22.968;2024-03-23T09:08:23;9.27;;;5.45;;
10517;SDS011;5307;42.548;22.968;2024-03-23T09:10:49;12.38;;;5.70;;
10517;SDS011;5307;42.548;22.968;2024-03-23T09:13:16;8.27;;;5.50;;
10517;SDS011;5307;42.548;22.968;2024-03-23T09:15:46;12.75;;;6.57;;
10517;SDS011;5307;42.548;22.968;2024-03-23T09:18:14;7.50;;;5.28;;
10517;SDS011;5307;42.548;22.968;2024-03-23T09:20:40;10.43;;;6.20;;
10517;SDS011;5307;42.548;22.968;2024-03-23T09:23:07;11.55;;;6.00;;
10517;SDS011;5307;42.548;22.968;2024-03-23T09:25:35;14.35;;;6.00;;
10517;SDS011;5307;42.548;22.968;2024-03-23T09:28:03;10.85;;;5.60;;
10517;SDS011;5307;42.548;22.968;2024-03-23T09:30:29;9.25;;;5.78;;
10517;SDS011;5307;42.548;22.968;2024-03-23T09:32:57;9.07;;;6.10;;
10517;SDS011;5307;42.548;22.968;2024-03-23T09:35:22;7.50;;;5.57;;
10517;SDS011;5307;42.548;22.968;2024-03-23T09:37:49;12.15;;;5.93;;
10517;SDS011;5307;42.548;22.968;2024-03-23T09:40:15;8.50;;;5.95;;
10517;SDS011;5307;42.548;22.968;2024-03-23T09:42:42;14.20;;;5.50;;
10517;SDS011;5307;42.548;22.968;2024-03-23T09:45:14;10.80;;;5.80;;
10517;SDS011;5307;42.548;22.968;2024-03-23T09:47:44;10.65;;;5.70;;
10517;SDS011;5307;42.548;22.968;2024-03-23T09:50:12;10.20;;;6.28;;
10517;SDS011;5307;42.548;22.968;2024-03-23T09:52:39;10.80;;;5.28;;
10517;SDS011;5307;42.548;22.968;2024-03-23T09:55:06;11.02;;;5.82;;
10517;SDS011;5307;42.548;22.968;2024-03-23T09:57:34;8.18;;;5.55;;
10517;SDS011;5307;42.548;22.968;2024-03-23T10:00:02;5.93;;;4.40;;
10517;SDS011;5307;42.548;22.968;2024-03-23T10:02:30;6.05;;;4.30;;
10517;SDS011;5307;42.548;22.968;2024-03-23T10:04:56;7.05;;;4.68;;
10517;SDS011;5307;42.548;22.968;2024-03-23T10:07:25;7.78;;;4.03;;
10517;SDS011;5307;42.548;22.968;2024-03-23T10:09:51;6.43;;;4.15;;
10517;SDS011;5307;42.548;22.968;2024-03-23T10:12:18;8.20;;;3.78;;
10517;SDS011;5307;42.548;22.968;2024-03-23T10:14:45;5.47;;;3.38;;
10517;SDS011;5307;42.548;22.968;2024-03-23T10:17:12;4.88;;;3.42;;
10517;SDS011;5307;42.548;22.968;2024-03-23T10:19:39;4.70;;;3.17;;
10517;SDS011;5307;42.548;22.968;2024-03-23T10:22:07;5.47;;;3.42;;
10517;SDS011;5307;42.548;22.968;2024-03-23T10:24:35;6.93;;;4.25;;
10517;SDS011;5307;42.548;22.968;2024-03-23T10:27:02;9.73;;;4.60;;
10517;SDS011;5307;42.548;22.968;2024-03-23T10:29:28;6.22;;;3.70;;
10517;SDS011;5307;42.548;22.968;2024-03-23T10:31:55;7.38;;;3.97;;
10517;SDS011;5307;42.548;22.968;2024-03-23T10:34:33;5.50;;;3.63;;
10517;SDS011;5307;42.548;22.968;2024-03-23T10:37:00;4.72;;;3.55;;
10517;SDS011;5307;42.548;22.968;2024-03-23T10:39:28;6.82;;;3.80;;
10517;SDS011;5307;42.548;22.968;2024-03-23T10:41:58;4.63;;;3.80;;
10517;SDS011;5307;42.548;22.968;2024-03-23T10:44:27;7.57;;;4.53;;
10517;SDS011;5307;42.548;22.968;2024-03-23T10:46:56;5.28;;;3.92;;
10517;SDS011;5307;42.548;22.968;2024-03-23T10:49:25;6.57;;;4.18;;
10517;SDS011;5307;42.548;22.968;2024-03-23T10:51:54;6.43;;;3.47;;
10517;SDS011;5307;42.548;22.968;2024-03-23T10:54:22;5.55;;;3.83;;
10517;SDS011;5307;42.548;22.968;2024-03-23T10:56:50;6.90;;;4.30;;
10517;SDS011;5307;42.548;22.968;2024-03-23T10:59:23;5.72;;;3.78;;
10517;SDS011;5307;42.548;22.968;2024-03-23T11:01:54;6.78;;;3.67;;
10517;SDS011;5307;42.548;22.968;2024-03-23T11:04:30;4.40;;;3.47;;
10517;SDS011;5307;42.548;22.968;2024-03-23T11:06:58;4.10;;;3.25;;
10517;SDS011;5307;42.548;22.968;2024-03-23T11:09:39;5.95;;;3.58;;
10517;SDS011;5307;42.548;22.968;2024-03-23T11:12:25;5.15;;;3.10;;
10517;SDS011;5307;42.548;22.968;2024-03-23T11:14:59;9.57;;;4.50;;
10517;SDS011;5307;42.548;22.968;2024-03-23T11:17:27;6.38;;;3.97;;
10517;SDS011;5307;42.548;22.968;2024-03-23T11:19:55;8.63;;;4.85;;
10517;SDS011;5307;42.548;22.968;2024-03-23T11:22:41;6.18;;;3.78;;
10517;SDS011;5307;42.548;22.968;2024-03-23T11:25:18;4.88;;;3.22;;
10517;SDS011;5307;42.548;22.968;2024-03-23T11:27:46;5.30;;;4.00;;
10517;SDS011;5307;42.548;22.968;2024-03-23T11:30:15;5.93;;;3.70;;
10517;SDS011;5307;42.548;22.968;2024-03-23T11:32:42;6.00;;;3.45;;
10517;SDS011;5307;42.548;22.968;2024-03-23T11:35:09;5.35;;;3.83;;
10517;SDS011;5307;42.548;22.968;2024-03-23T11:37:36;5.07;;;3.50;;
10517;SDS011;5307;42.548;22.968;2024-03-23T11:40:19;4.50;;;3.47;;
10517;SDS011;5307;42.548;22.968;2024-03-23T11:42:45;7.20;;;3.95;;
10517;SDS011;5307;42.548;22.968;2024-03-23T11:45:12;4.38;;;3.63;;
10517;SDS011;5307;42.548;22.968;2024-03-23T11:47:41;6.85;;;3.80;;
10517;SDS011;5307;42.548;22.968;2024-03-23T11:50:08;4.70;;;3.40;;
10517;SDS011;5307;42.548;22.968;2024-03-23T11:52:34;5.88;;;3.60;;
10517;SDS011;5307;42.548;22.968;2024-03-23T11:55:05;4.80;;;3.63;;
10517;SDS011;5307;42.548;22.968;2024-03-23T11:57:33;6.82;;;3.60;;
10517;SDS011;5307;42.548;22.968;2024-03-23T12:00:00;5.00;;;3.08;;
10517;SDS011;5307;42.548;22.968;2024-03-23T12:02:27;6.57;;;3.97;;
10517;SDS011;5307;42.548;22.968;2024-03-23T12:04:55;5.45;;;3.28;;
10517;SDS011;5307;42.548;22.968;2024-03-23T12:07:21;7.80;;;3.20;;
10517;SDS011;5307;42.548;22.968;2024-03-23T12:10:02;3.83;;;3.17;;
10517;SDS011;5307;42.548;22.968;2024-03-23T12:12:28;8.23;;;3.80;;
10517;SDS011;5307;42.548;22.968;2024-03-23T12:15:01;4.95;;;3.47;;
10517;SDS011;5307;42.548;22.968;2024-03-23T12:17:30;7.60;;;4.13;;
10517;SDS011;5307;42.548;22.968;2024-03-23T12:19:56;6.40;;;3.40;;
10517;SDS011;5307;42.548;22.968;2024-03-23T12:22:22;3.58;;;3.20;;
10517;SDS011;5307;42.548;22.968;2024-03-23T12:24:50;8.23;;;3.25;;
10517;SDS011;5307;42.548;22.968;2024-03-23T12:27:16;6.15;;;3.20;;
10517;SDS011;5307;42.548;22.968;2024-03-23T12:29:43;3.53;;;2.97;;
10517;SDS011;5307;42.548;22.968;2024-03-23T12:32:11;4.45;;;2.97;;
10517;SDS011;5307;42.548;22.968;2024-03-23T12:34:40;9.43;;;4.93;;
10517;SDS011;5307;42.548;22.968;2024-03-23T12:37:06;122.20;;;32.85;;
10517;SDS011;5307;42.548;22.968;2024-03-23T12:39:33;5.05;;;3.08;;
10517;SDS011;5307;42.548;22.968;2024-03-23T12:42:00;4.15;;;2.88;;
10517;SDS011;5307;42.548;22.968;2024-03-23T12:44:29;8.65;;;6.57;;
10517;SDS011;5307;42.548;22.968;2024-03-23T12:46:54;6.28;;;4.38;;
10517;SDS011;5307;42.548;22.968;2024-03-23T12:49:21;5.82;;;3.30;;
10517;SDS011;5307;42.548;22.968;2024-03-23T12:51:53;6.82;;;4.05;;
10517;SDS011;5307;42.548;22.968;2024-03-23T12:54:22;6.28;;;3.80;;
10517;SDS011;5307;42.548;22.968;2024-03-23T12:56:48;3.72;;;3.08;;
10517;SDS011;5307;42.548;22.968;2024-03-23T12:59:15;8.77;;;3.25;;
10517;SDS011;5307;42.548;22.968;2024-03-23T13:01:41;8.43;;;4.10;;
10517;SDS011;5307;42.548;22.968;2024-03-23T13:04:08;35.72;;;11.65;;
10517;SDS011;5307;42.548;22.968;2024-03-23T13:06:34;7.13;;;3.25;;
10517;SDS011;5307;42.548;22.968;2024-03-23T13:09:03;6.63;;;5.00;;
10517;SDS011;5307;42.548;22.968;2024-03-23T13:11:29;6.13;;;4.32;;
10517;SDS011;5307;42.548;22.968;2024-03-23T13:13:56;6.85;;;5.13;;
10517;SDS011;5307;42.548;22.968;2024-03-23T13:16:21;7.00;;;4.05;;
10517;SDS011;5307;42.548;22.968;2024-03-23T13:18:48;5.03;;;3.25;;
10517;SDS011;5307;42.548;22.968;2024-03-23T13:21:15;5.35;;;4.07;;
10517;SDS011;5307;42.548;22.968;2024-03-23T13:23:42;4.18;;;3.55;;
10517;SDS011;5307;42.548;22.968;2024-03-23T13:26:12;5.50;;;3.10;;
10517;SDS011;5307;42.548;22.968;2024-03-23T13:28:39;4.78;;;3.33;;
10517;SDS011;5307;42.548;22.968;2024-03-23T13:31:05;4.93;;;3.30;;
10517;SDS011;5307;42.548;22.968;2024-03-23T13:33:31;5.88;;;3.20;;
10517;SDS011;5307;42.548;22.968;2024-03-23T13:35:57;5.15;;;3.38;;
10517;SDS011;5307;42.548;22.968;2024-03-23T13:38:24;8.18;;;4.38;;
10517;SDS011;5307;42.548;22.968;2024-03-23T13:40:51;8.48;;;4.88;;
10517;SDS011;5307;42.548;22.968;2024-03-23T13:43:20;6.50;;;3.20;;
10517;SDS011;5307;42.548;22.968;2024-03-23T13:45:46;5.80;;;3.60;;
10517;SDS011;5307;42.548;22.968;2024-03-23T13:48:13;8.43;;;3.92;;
10517;SDS011;5307;42.548;22.968;2024-03-23T13:50:40;7.97;;;3.88;;
10517;SDS011;5307;42.548;22.968;2024-03-23T13:53:07;5.93;;;4.20;;
10517;SDS011;5307;42.548;22.968;2024-03-23T13:55:33;9.75;;;3.85;;
10517;SDS011;5307;42.548;22.968;2024-03-23T13:58:00;3.60;;;3.08;;
10517;SDS011;5307;42.548;22.968;2024-03-23T14:00:28;12.23;;;10.60;;
10517;SDS011;5307;42.548;22.968;2024-03-23T14:02:54;3.88;;;3.17;;
10517;SDS011;5307;42.548;22.968;2024-03-23T14:05:20;15.85;;;10.38;;
10517;SDS011;5307;42.548;22.968;2024-03-23T14:07:47;6.45;;;4.10;;
10517;SDS011;5307;42.548;22.968;2024-03-23T14:10:12;6.45;;;3.88;;
10517;SDS011;5307;42.548;22.968;2024-03-23T14:12:39;5.90;;;3.83;;
10517;SDS011;5307;42.548;22.968;2024-03-23T14:15:06;7.95;;;3.50;;
10517;SDS011;5307;42.548;22.968;2024-03-23T14:17:34;4.55;;;3.33;;
10517;SDS011;5307;42.548;22.968;2024-03-23T14:20:00;7.00;;;3.22;;
10517;SDS011;5307;42.548;22.968;2024-03-23T14:22:29;6.35;;;3.28;;
10517;SDS011;5307;42.548;22.968;2024-03-23T14:24:54;4.80;;;3.15;;
10517;SDS011;5307;42.548;22.968;2024-03-23T14:27:21;5.60;;;3.20;;
10517;SDS011;5307;42.548;22.968;2024-03-23T14:29:50;5.22;;;3.10;;
10517;SDS011;5307;42.548;22.968;2024-03-23T14:32:16;7.15;;;3.58;;
10517;SDS011;5307;42.548;22.968;2024-03-23T14:34:43;7.05;;;4.00;;
10517;SDS011;5307;42.548;22.968;2024-03-23T14:37:10;4.82;;;3.67;;
10517;SDS011;5307;42.548;22.968;2024-03-23T14:39:36;7.50;;;3.92;;
10517;SDS011;5307;42.548;22.968;2024-03-23T14:42:04;6.13;;;3.60;;
10517;SDS011;5307;42.548;22.968;2024-03-23T14:44:31;3.33;;;2.92;;
10517;SDS011;5307;42.548;22.968;2024-03-23T14:46:58;6.78;;;4.60;;
10517;SDS011;5307;42.548;22.968;2024-03-23T14:49:24;4.30;;;3.10;;
10517;SDS011;5307;42.548;22.968;2024-03-23T14:51:52;4.82;;;3.55;;
10517;SDS011;5307;42.548;22.968;2024-03-23T14:54:18;5.10;;;3.20;;
10517;SDS011;5307;42.548;22.968;2024-03-23T14:56:45;4.60;;;2.90;;
10517;SDS011;5307;42.548;22.968;2024-03-23T14:59:12;3.42;;;2.85;;
10517;SDS011;5307;42.548;22.968;2024-03-23T15:01:39;4.40;;;2.97;;
10517;SDS011;5307;42.548;22.968;2024-03-23T15:04:05;4.43;;;3.55;;
10517;SDS011;5307;42.548;22.968;2024-03-23T15:06:32;6.78;;;3.17;;
10517;SDS011;5307;42.548;22.968;2024-03-23T15:09:01;6.90;;;4.00;;
10517;SDS011;5307;42.548;22.968;2024-03-23T15:11:32;5.68;;;3.80;;
10517;SDS011;5307;42.548;22.968;2024-03-23T15:13:58;4.63;;;3.65;;
10517;SDS011;5307;42.548;22.968;2024-03-23T15:16:24;5.82;;;3.80;;
10517;SDS011;5307;42.548;22.968;2024-03-23T15:18:50;5.82;;;3.65;;
10517;SDS011;5307;42.548;22.968;2024-03-23T15:21:17;4.28;;;3.40;;
10517;SDS011;5307;42.548;22.968;2024-03-23T15:23:46;5.68;;;3.47;;
10517;SDS011;5307;42.548;22.968;2024-03-23T15:26:14;3.83;;;3.28;;
10517;SDS011;5307;42.548;22.968;2024-03-23T15:28:41;6.80;;;3.50;;
10517;SDS011;5307;42.548;22.968;2024-03-23T15:31:27;8.13;;;4.40;;
10517;SDS011;5307;42.548;22.968;2024-03-23T15:33:54;5.45;;;4.22;;